createdAt,value
2023-03-21T00:01:34.165Z,88.50
2023-03-21T00:04:01.121Z,88.40
2023-03-21T00:06:28.264Z,88.60
2023-03-21T00:08:55.212Z,88.50
2023-03-21T00:11:22.283Z,88.60
2023-03-21T00:13:49.211Z,88.60
2023-03-21T00:16:19.446Z,88.50
2023-03-21T00:18:57.275Z,88.60
2023-03-21T00:24:15.251Z,88.60
2023-03-21T00:26:42.611Z,88.80
2023-03-21T00:29:09.525Z,88.70
2023-03-21T00:31:36.617Z,88.50
2023-03-21T00:34:05.314Z,88.60
2023-03-21T00:36:32.776Z,88.70
2023-03-21T00:39:01.052Z,88.80
2023-03-21T00:41:41.446Z,88.50
2023-03-21T00:44:10.000Z,88.60
2023-03-21T00:46:45.477Z,88.70
2023-03-21T00:49:15.413Z,88.60
2023-03-21T00:51:43.628Z,88.70
2023-03-21T00:54:12.424Z,88.50
2023-03-21T00:56:39.901Z,88.40
2023-03-21T00:59:07.051Z,88.50
2023-03-21T01:01:33.980Z,88.80
2023-03-21T01:04:07.549Z,88.70
2023-03-21T01:06:41.402Z,88.50
2023-03-21T01:09:12.266Z,88.60
2023-03-21T01:11:39.508Z,88.70
2023-03-21T01:14:21.406Z,88.70
2023-03-21T01:16:50.538Z,88.80
2023-03-21T01:19:32.947Z,88.80
2023-03-21T01:22:08.814Z,88.70
2023-03-21T01:24:40.540Z,88.80
2023-03-21T01:27:10.645Z,88.60
2023-03-21T01:29:38.124Z,88.60
2023-03-21T01:32:06.134Z,88.60
2023-03-21T01:34:33.397Z,88.80
2023-03-21T01:37:00.716Z,88.70
2023-03-21T01:39:28.887Z,88.70
2023-03-21T01:41:55.931Z,88.60
2023-03-21T01:44:22.835Z,88.80
2023-03-21T01:47:07.421Z,88.90
2023-03-21T01:49:40.939Z,88.80
2023-03-21T01:52:18.971Z,88.70
2023-03-21T01:54:54.687Z,88.70
2023-03-21T01:57:41.013Z,88.80
2023-03-21T02:00:13.379Z,88.70
2023-03-21T02:03:36.163Z,88.60
2023-03-21T02:13:32.509Z,88.80
2023-03-21T02:16:15.337Z,88.80
2023-03-21T02:18:50.537Z,88.60
2023-03-21T02:21:49.823Z,88.70
2023-03-21T02:25:01.312Z,88.80
2023-03-21T02:27:33.781Z,88.80
2023-03-21T02:30:37.502Z,88.70
2023-03-21T02:33:33.434Z,88.80
2023-03-21T02:36:26.204Z,88.70
2023-03-21T02:39:00.921Z,88.60
2023-03-21T02:41:40.320Z,88.70
2023-03-21T02:44:15.546Z,88.80
2023-03-21T02:46:53.707Z,88.70
2023-03-21T02:49:27.944Z,88.80
2023-03-21T02:58:58.439Z,88.80
2023-03-21T03:01:25.954Z,88.80
2023-03-21T03:03:53.325Z,88.80
2023-03-21T03:06:24.442Z,88.80
2023-03-21T03:09:04.740Z,88.80
2023-03-21T03:11:34.375Z,88.80
2023-03-21T03:14:44.208Z,88.80
2023-03-21T03:17:28.280Z,88.80
2023-03-21T03:20:16.493Z,88.90
2023-03-21T03:26:48.409Z,88.70
2023-03-21T03:33:30.984Z,88.80
2023-03-21T03:36:05.485Z,88.80
2023-03-21T03:38:35.701Z,88.80
2023-03-21T03:41:09.150Z,88.90
2023-03-21T03:43:41.572Z,88.80
2023-03-21T03:46:14.377Z,88.90
2023-03-21T03:48:48.212Z,88.80
2023-03-21T03:51:21.070Z,88.80
2023-03-21T03:53:54.254Z,88.80
2023-03-21T03:56:22.357Z,88.90
2023-03-21T03:58:49.765Z,88.80
2023-03-21T04:01:17.866Z,88.80
2023-03-21T04:03:54.438Z,88.70
2023-03-21T04:06:27.862Z,88.90
2023-03-21T04:08:54.826Z,88.70
2023-03-21T04:11:21.900Z,88.80
2023-03-21T04:13:48.761Z,88.80
2023-03-21T04:16:15.940Z,88.90
2023-03-21T04:18:42.848Z,88.80
2023-03-21T04:21:12.892Z,88.90
2023-03-21T04:23:40.199Z,89.00
2023-03-21T04:26:07.776Z,89.00
2023-03-21T04:28:36.936Z,89.00
2023-03-21T04:31:19.117Z,89.00
2023-03-21T04:33:51.584Z,89.00
2023-03-21T04:36:27.761Z,89.00
2023-03-21T04:38:54.952Z,89.20
2023-03-21T04:41:22.293Z,89.20
2023-03-21T04:43:49.269Z,89.00
2023-03-21T04:46:16.190Z,89.00
2023-03-21T04:48:43.171Z,89.10
2023-03-21T04:51:10.149Z,89.10
2023-03-21T04:53:39.456Z,89.00
2023-03-21T04:56:07.064Z,89.10
2023-03-21T04:58:33.924Z,89.10
2023-03-21T05:01:02.450Z,89.10
2023-03-21T05:03:34.484Z,89.10
2023-03-21T05:06:01.749Z,89.00
2023-03-21T05:08:28.917Z,89.10
2023-03-21T05:10:57.328Z,89.20
2023-03-21T05:13:24.355Z,89.20
2023-03-21T05:15:51.244Z,89.20
2023-03-21T05:18:24.873Z,89.20
2023-03-21T05:20:54.130Z,89.00
2023-03-21T05:23:23.859Z,89.10
2023-03-21T05:25:50.866Z,89.10
2023-03-21T05:28:19.273Z,89.00
2023-03-21T05:30:49.432Z,89.00
2023-03-21T05:33:16.434Z,89.00
2023-03-21T05:35:43.490Z,89.00
2023-03-21T05:38:10.526Z,89.00
2023-03-21T05:40:37.746Z,88.90
2023-03-21T05:43:04.622Z,89.00
2023-03-21T05:45:33.174Z,88.90
2023-03-21T05:48:00.232Z,88.90
2023-03-21T05:50:30.048Z,88.90
2023-03-21T05:52:57.607Z,88.90
2023-03-21T05:55:24.610Z,89.00
2023-03-21T05:57:51.605Z,89.00
2023-03-21T06:00:21.855Z,88.90
2023-03-21T06:02:50.233Z,88.90
2023-03-21T06:05:17.465Z,88.90
2023-03-21T06:07:44.397Z,88.90
2023-03-21T06:10:14.259Z,88.80
2023-03-21T06:12:42.992Z,88.90
2023-03-21T06:15:10.860Z,88.80
2023-03-21T06:17:38.001Z,88.80
2023-03-21T06:20:08.347Z,88.70
2023-03-21T06:22:36.034Z,88.70
2023-03-21T06:25:03.504Z,88.80
2023-03-21T06:27:30.824Z,88.80
2023-03-21T06:30:00.517Z,88.80
2023-03-21T06:32:28.184Z,88.70
2023-03-21T06:34:55.417Z,88.70
2023-03-21T06:37:24.482Z,88.70
2023-03-21T06:39:51.437Z,88.70
2023-03-21T06:42:18.384Z,88.70
2023-03-21T06:44:45.325Z,88.60
2023-03-21T06:47:12.473Z,88.70
2023-03-21T06:49:41.014Z,88.70
2023-03-21T06:52:08.037Z,88.60
2023-03-21T06:54:36.555Z,88.60
2023-03-21T06:57:03.658Z,88.70
2023-03-21T06:59:31.237Z,88.70
2023-03-21T07:01:58.287Z,88.60
2023-03-21T07:04:27.128Z,88.50
2023-03-21T07:06:54.192Z,88.60
2023-03-21T07:09:24.832Z,88.50
2023-03-21T07:11:53.956Z,88.50
2023-03-21T07:14:21.102Z,88.50
2023-03-21T07:16:48.191Z,88.50
2023-03-21T07:19:15.721Z,88.40
2023-03-21T07:21:42.604Z,88.50
2023-03-21T07:24:09.484Z,88.60
2023-03-21T07:26:37.593Z,88.50
2023-03-21T07:29:06.001Z,88.40
2023-03-21T07:31:33.021Z,88.40
2023-03-21T07:33:59.873Z,88.40
2023-03-21T07:36:28.074Z,88.40
2023-03-21T07:38:55.139Z,88.50
2023-03-21T07:41:22.057Z,88.50
2023-03-21T07:43:49.268Z,88.50
2023-03-21T07:46:17.776Z,88.50
2023-03-21T07:48:44.849Z,88.50
2023-03-21T07:51:11.840Z,88.50
2023-03-21T07:53:41.788Z,88.50
2023-03-21T07:56:09.478Z,88.50
2023-03-21T07:58:36.386Z,88.50
2023-03-21T08:01:03.373Z,88.60
2023-03-21T08:03:33.484Z,88.70
2023-03-21T08:06:01.476Z,88.50
2023-03-21T08:08:28.433Z,88.50
2023-03-21T08:10:55.789Z,88.40
2023-03-21T08:13:23.173Z,88.50
2023-03-21T08:15:50.266Z,88.50
2023-03-21T08:18:17.243Z,88.60
2023-03-21T08:20:45.682Z,88.50
2023-03-21T08:23:13.896Z,88.50
2023-03-21T08:25:43.712Z,88.50
2023-03-21T08:28:10.804Z,88.50
2023-03-21T08:30:38.261Z,88.50
2023-03-21T08:33:05.682Z,88.40
2023-03-21T08:35:32.635Z,88.40
2023-03-21T08:38:02.688Z,88.40
2023-03-21T08:40:29.911Z,88.40
2023-03-21T08:42:56.738Z,88.30
2023-03-21T08:45:24.402Z,88.40
2023-03-21T08:47:54.732Z,88.30
2023-03-21T08:50:23.687Z,88.30
2023-03-21T08:52:51.082Z,88.20
2023-03-21T08:55:19.877Z,88.20
2023-03-21T08:57:46.866Z,88.20
2023-03-21T09:00:18.133Z,88.10
2023-03-21T09:02:47.037Z,88.10
2023-03-21T09:05:14.585Z,88.00
2023-03-21T09:07:41.898Z,88.00
2023-03-21T09:10:26.943Z,87.90
2023-03-21T09:12:56.143Z,87.90
2023-03-21T09:15:25.022Z,87.90
2023-03-21T09:17:54.536Z,87.90
2023-03-21T09:20:31.505Z,87.80
2023-03-21T09:23:04.310Z,87.90
2023-03-21T09:25:37.480Z,87.80
2023-03-21T09:28:09.617Z,87.70
2023-03-21T09:30:37.796Z,87.80
2023-03-21T09:33:10.457Z,87.70
2023-03-21T09:35:38.179Z,87.50
2023-03-21T09:38:10.499Z,87.40
2023-03-21T09:40:58.589Z,87.40
2023-03-21T09:43:44.044Z,87.50
2023-03-21T09:46:18.676Z,87.30
2023-03-21T09:48:56.638Z,87.30
2023-03-21T09:51:28.331Z,87.00
2023-03-21T09:53:57.308Z,87.00
2023-03-21T09:56:26.147Z,87.00
2023-03-21T09:58:59.520Z,87.00
2023-03-21T10:01:30.066Z,87.00
2023-03-21T10:04:00.589Z,86.70
2023-03-21T10:06:29.402Z,86.60
2023-03-21T10:09:00.462Z,86.50
2023-03-21T10:11:31.230Z,86.00
2023-03-21T10:14:04.450Z,85.80
2023-03-21T10:16:37.573Z,85.70
2023-03-21T10:19:11.824Z,85.40
2023-03-21T10:24:29.045Z,85.10
2023-03-21T10:26:57.061Z,84.80
2023-03-21T10:29:29.326Z,84.70
2023-03-21T10:31:56.715Z,84.50
2023-03-21T10:34:33.072Z,84.80
2023-03-21T10:37:01.817Z,84.80
2023-03-21T10:39:34.646Z,84.70
2023-03-21T10:42:01.809Z,84.40
2023-03-21T10:44:32.668Z,84.40
2023-03-21T10:47:05.205Z,84.20
2023-03-21T10:49:40.207Z,84.00
2023-03-21T10:52:11.255Z,83.80
2023-03-21T10:54:38.571Z,83.60
2023-03-21T10:57:08.719Z,83.70
2023-03-21T10:59:43.397Z,83.80
2023-03-21T11:02:17.846Z,83.70
2023-03-21T11:04:46.491Z,83.70
2023-03-21T11:07:15.385Z,83.60
2023-03-21T11:09:48.018Z,83.60
2023-03-21T11:12:17.467Z,83.40
2023-03-21T11:14:53.874Z,83.40
2023-03-21T11:17:30.512Z,83.20
2023-03-21T11:20:00.619Z,83.40
2023-03-21T11:22:30.903Z,83.20
2023-03-21T11:25:00.931Z,83.30
2023-03-21T11:27:30.291Z,83.40
2023-03-21T11:30:01.082Z,83.10
2023-03-21T11:32:33.179Z,82.70
2023-03-21T11:35:02.295Z,83.00
2023-03-21T11:37:33.260Z,82.90
2023-03-21T11:40:19.434Z,82.70
2023-03-21T11:42:49.658Z,82.50
2023-03-21T11:45:21.014Z,82.20
2023-03-21T11:47:49.786Z,81.80
2023-03-21T11:50:33.952Z,82.10
2023-03-21T11:53:20.561Z,82.20
2023-03-21T11:56:06.540Z,82.00
2023-03-21T11:58:40.089Z,81.70
2023-03-21T12:01:18.107Z,81.80
2023-03-21T12:04:03.376Z,81.40
2023-03-21T12:06:36.110Z,81.30
2023-03-21T12:09:18.598Z,81.40
2023-03-21T12:11:58.519Z,81.70
2023-03-21T12:14:35.844Z,81.50
2023-03-21T12:17:14.259Z,81.50
2023-03-21T12:20:10.502Z,81.50
2023-03-21T12:22:45.952Z,81.20
2023-03-21T12:25:17.974Z,80.80
2023-03-21T12:27:53.461Z,81.20
2023-03-21T12:30:38.258Z,80.80
2023-03-21T12:33:23.982Z,80.40
2023-03-21T12:36:06.170Z,80.50
2023-03-21T12:38:44.084Z,80.20
2023-03-21T12:41:25.752Z,79.20
2023-03-21T12:43:58.502Z,78.50
2023-03-21T12:46:39.180Z,77.30
2023-03-21T12:49:17.354Z,77.50
2023-03-21T12:51:48.245Z,76.90
2023-03-21T12:54:23.468Z,77.00
2023-03-21T12:56:54.979Z,76.60
2023-03-21T12:59:30.889Z,75.80
2023-03-21T13:02:04.098Z,75.70
2023-03-21T13:04:52.292Z,74.80
2023-03-21T13:07:21.041Z,75.80
2023-03-21T13:09:48.057Z,75.50
2023-03-21T13:12:32.686Z,75.50
2023-03-21T13:15:23.244Z,76.20
2023-03-21T13:17:56.799Z,76.00
2023-03-21T13:20:34.941Z,75.70
2023-03-21T13:23:03.916Z,75.90
2023-03-21T13:25:33.260Z,76.40
2023-03-21T13:28:03.215Z,76.00
2023-03-21T13:30:32.529Z,76.10
2023-03-21T13:33:06.868Z,76.10
2023-03-21T13:35:38.575Z,76.40
2023-03-21T13:38:13.530Z,76.20
2023-03-21T13:40:44.167Z,76.20
2023-03-21T13:43:33.800Z,76.20
2023-03-21T13:46:07.369Z,76.40
2023-03-21T13:48:59.726Z,76.60
2023-03-21T13:51:45.909Z,76.60
2023-03-21T13:54:24.410Z,76.60
2023-03-21T13:56:53.866Z,76.40
2023-03-21T13:59:38.888Z,76.20
2023-03-21T14:02:39.455Z,76.30
2023-03-21T14:05:19.265Z,75.60
2023-03-21T14:07:54.732Z,75.30
2023-03-21T14:10:30.485Z,75.40
2023-03-21T14:12:59.076Z,75.50
2023-03-21T14:15:29.652Z,75.80
2023-03-21T14:17:58.969Z,75.60
2023-03-21T14:20:27.907Z,75.80
2023-03-21T14:22:56.828Z,75.80
2023-03-21T14:25:29.284Z,75.80
2023-03-21T14:28:01.394Z,75.80
2023-03-21T14:30:32.934Z,75.80
2023-03-21T14:33:08.304Z,75.50
2023-03-21T14:35:36.391Z,75.60
2023-03-21T14:38:07.550Z,75.50
2023-03-21T14:40:35.190Z,75.70
2023-03-21T14:43:05.871Z,75.50
2023-03-21T14:45:35.777Z,75.70
2023-03-21T14:48:06.556Z,75.90
2023-03-21T14:50:40.337Z,75.80
2023-03-21T14:53:16.096Z,75.80
2023-03-21T14:55:46.272Z,76.00
2023-03-21T14:58:19.352Z,76.00
2023-03-21T15:00:49.700Z,75.90
2023-03-21T15:03:18.624Z,76.30
2023-03-21T15:05:46.883Z,76.30
2023-03-21T15:08:17.717Z,76.20
2023-03-21T15:11:06.204Z,76.50
2023-03-21T15:13:36.351Z,76.70
2023-03-21T15:16:04.584Z,76.70
2023-03-21T15:18:33.766Z,76.80
2023-03-21T15:21:04.761Z,76.90
2023-03-21T15:23:38.702Z,76.80
2023-03-21T15:26:06.778Z,76.80
2023-03-21T15:28:36.380Z,76.90
2023-03-21T15:31:06.950Z,76.90
2023-03-21T15:33:37.425Z,76.90
2023-03-21T15:36:14.203Z,77.00
2023-03-21T15:38:45.571Z,77.10
2023-03-21T15:41:23.844Z,77.10
2023-03-21T15:44:00.764Z,77.20
2023-03-21T15:46:43.068Z,77.30
2023-03-21T15:49:17.986Z,77.30
2023-03-21T15:51:48.710Z,77.40
2023-03-21T15:54:22.210Z,77.40
2023-03-21T15:56:51.696Z,77.60
2023-03-21T15:59:19.654Z,77.70
2023-03-21T16:01:50.347Z,77.80
2023-03-21T16:04:18.643Z,77.90
2023-03-21T16:06:56.687Z,78.00
2023-03-21T16:09:25.718Z,78.30
2023-03-21T16:11:54.879Z,78.60
2023-03-21T16:15:20.165Z,78.70
2023-03-21T16:17:52.137Z,78.90
2023-03-21T16:20:22.092Z,79.10
2023-03-21T16:22:52.894Z,79.10
2023-03-21T16:25:22.141Z,79.20
2023-03-21T16:27:51.369Z,79.30
2023-03-21T16:30:20.954Z,79.20
2023-03-21T16:32:49.842Z,79.40
2023-03-21T16:35:17.765Z,79.50
2023-03-21T16:37:45.736Z,79.60
2023-03-21T16:40:21.452Z,79.60
2023-03-21T16:42:50.272Z,79.70
2023-03-21T16:45:17.248Z,79.80
2023-03-21T16:47:44.767Z,79.90
2023-03-21T16:50:24.341Z,80.10
2023-03-21T16:52:52.171Z,80.10
2023-03-21T16:55:19.857Z,80.10
2023-03-21T16:57:47.337Z,80.20
2023-03-21T17:00:23.179Z,80.20
2023-03-21T17:02:52.161Z,80.30
2023-03-21T17:05:19.762Z,80.40
2023-03-21T17:07:47.120Z,80.60
2023-03-21T17:10:18.005Z,80.60
2023-03-21T17:12:44.991Z,80.80
2023-03-21T17:15:13.190Z,80.80
2023-03-21T17:17:42.081Z,81.10
2023-03-21T17:20:19.046Z,81.20
2023-03-21T17:22:46.206Z,81.30
2023-03-21T17:25:13.260Z,81.40
2023-03-21T17:27:40.953Z,81.50
2023-03-21T17:30:18.711Z,81.60
2023-03-21T17:32:50.376Z,81.40
2023-03-21T17:35:17.951Z,81.30
2023-03-21T17:37:50.533Z,81.30
2023-03-21T17:40:21.279Z,81.40
2023-03-21T17:42:51.631Z,81.60
2023-03-21T17:45:19.998Z,81.50
2023-03-21T17:47:48.381Z,81.60
2023-03-21T17:50:17.606Z,81.80
2023-03-21T17:52:44.743Z,81.90
2023-03-21T17:55:12.481Z,81.70
2023-03-21T17:57:39.847Z,81.70
2023-03-21T18:00:12.707Z,81.80
2023-03-21T18:02:40.036Z,81.90
2023-03-21T18:05:09.717Z,81.70
2023-03-21T18:08:08.148Z,81.80
2023-03-21T18:10:28.099Z,81.70
2023-03-21T18:12:59.035Z,81.70
2023-03-21T18:15:30.754Z,81.90
2023-03-21T18:17:58.033Z,81.80
2023-03-21T18:20:49.824Z,81.90
2023-03-21T18:23:15.395Z,82.00
2023-03-21T18:25:42.366Z,81.90
2023-03-21T18:28:11.787Z,81.90
2023-03-21T18:31:00.395Z,82.10
2023-03-21T18:33:27.399Z,82.00
2023-03-21T18:36:00.092Z,82.10
2023-03-21T18:38:29.195Z,81.90
2023-03-21T18:40:56.896Z,82.00
2023-03-21T18:46:11.778Z,82.10
2023-03-21T18:48:39.399Z,82.10
2023-03-21T18:51:09.538Z,82.20
2023-03-21T18:53:36.504Z,82.20
2023-03-21T18:56:09.632Z,82.20
2023-03-21T18:58:37.233Z,82.30
2023-03-21T19:01:05.213Z,82.40
2023-03-21T19:03:37.043Z,82.30
2023-03-21T19:06:06.334Z,82.40
2023-03-21T19:08:38.255Z,82.30
2023-03-21T19:11:06.637Z,82.50
2023-03-21T19:13:34.504Z,82.60
2023-03-21T19:16:02.649Z,82.60
2023-03-21T19:18:49.968Z,82.60
2023-03-21T19:21:17.383Z,82.70
2023-03-21T19:24:20.851Z,82.60
2023-03-21T19:26:32.834Z,82.80
2023-03-21T19:28:59.713Z,82.80
2023-03-21T19:31:27.143Z,82.80
2023-03-21T19:33:54.169Z,83.00
2023-03-21T19:36:23.409Z,83.10
2023-03-21T19:38:52.301Z,83.10
2023-03-21T19:41:20.167Z,83.20
2023-03-21T19:43:54.826Z,83.30
2023-03-21T19:46:25.336Z,83.20
2023-03-21T19:48:56.194Z,83.10
2023-03-21T19:51:28.611Z,83.30
2023-03-21T19:53:58.015Z,83.30
2023-03-21T19:56:27.338Z,83.30
2023-03-21T19:58:57.777Z,83.20
2023-03-21T20:01:26.471Z,83.40
2023-03-21T20:03:53.952Z,83.30
2023-03-21T20:06:24.643Z,83.40
2023-03-21T20:11:41.945Z,83.40
2023-03-21T20:14:09.237Z,83.50
2023-03-21T20:16:37.360Z,83.60
2023-03-21T20:19:05.108Z,83.80
2023-03-21T20:21:41.080Z,83.90
2023-03-21T20:24:13.489Z,83.90
2023-03-21T20:26:41.747Z,84.10
2023-03-21T20:29:54.990Z,84.00
2023-03-21T20:31:56.256Z,84.30
2023-03-21T20:34:23.181Z,84.60
2023-03-21T20:36:50.344Z,84.20
2023-03-21T20:39:17.846Z,84.40
2023-03-21T20:41:46.306Z,84.30
2023-03-21T20:44:42.268Z,84.50
2023-03-21T20:47:00.649Z,84.30
2023-03-21T20:49:28.492Z,84.50
2023-03-21T20:55:09.159Z,84.60
2023-03-21T20:57:38.922Z,84.40
2023-03-21T21:00:15.208Z,84.60
2023-03-21T21:02:44.348Z,84.50
2023-03-21T21:05:25.129Z,84.30
2023-03-21T21:07:54.535Z,84.40
2023-03-21T21:10:22.373Z,84.40
2023-03-21T21:12:50.715Z,84.40
2023-03-21T21:15:17.692Z,84.20
2023-03-21T21:20:34.118Z,84.50
2023-03-21T21:23:01.258Z,84.40
2023-03-21T21:25:30.673Z,84.40
2023-03-21T21:27:59.233Z,84.40
2023-03-21T21:30:26.282Z,84.40
2023-03-21T21:32:53.974Z,84.50
2023-03-21T21:35:22.348Z,84.40
2023-03-21T21:37:51.109Z,84.40
2023-03-21T21:40:20.318Z,84.30
2023-03-21T21:42:49.870Z,84.40
2023-03-21T21:45:18.925Z,84.50
2023-03-21T21:47:46.494Z,84.60
2023-03-21T21:50:13.704Z,84.60
2023-03-21T21:52:43.826Z,84.50
2023-03-21T21:55:10.955Z,84.50
2023-03-21T21:57:39.692Z,84.40
2023-03-21T22:00:12.888Z,84.40
2023-03-21T22:02:41.561Z,84.40
2023-03-21T22:05:09.230Z,84.30
2023-03-21T22:07:37.457Z,84.30
2023-03-21T22:10:05.415Z,84.20
2023-03-21T22:12:32.460Z,84.20
2023-03-21T22:14:59.596Z,84.10
2023-03-21T22:17:26.529Z,84.10
2023-03-21T22:20:05.463Z,84.00
2023-03-21T22:22:33.566Z,84.00
2023-03-21T22:25:00.483Z,83.90
2023-03-21T22:27:27.344Z,83.90
2023-03-21T22:29:54.422Z,83.90
2023-03-21T22:32:21.353Z,83.90
2023-03-21T22:34:48.627Z,83.90
2023-03-21T22:37:16.893Z,83.80
2023-03-21T22:39:44.073Z,83.80
2023-03-21T22:42:11.093Z,83.80
2023-03-21T22:44:38.380Z,83.80
2023-03-21T22:47:07.304Z,83.80
2023-03-21T22:49:34.185Z,83.80
2023-03-21T22:52:03.147Z,83.80
2023-03-21T22:54:32.295Z,83.70
2023-03-21T22:56:59.371Z,83.80
2023-03-21T22:59:27.320Z,83.70
2023-03-21T23:01:54.311Z,83.70
2023-03-21T23:04:21.590Z,83.70
2023-03-21T23:06:48.613Z,83.70
2023-03-21T23:09:16.219Z,83.70
2023-03-21T23:11:48.834Z,83.70
2023-03-21T23:14:20.782Z,83.70
2023-03-21T23:16:48.094Z,83.70
2023-03-21T23:19:15.957Z,83.70
2023-03-21T23:21:44.720Z,83.70
2023-03-21T23:24:12.089Z,83.70
2023-03-21T23:26:40.158Z,83.70
2023-03-21T23:29:09.282Z,83.70
2023-03-21T23:31:36.485Z,83.70
2023-03-21T23:34:04.274Z,83.60
2023-03-21T23:36:31.291Z,83.70
2023-03-21T23:38:58.766Z,83.60
2023-03-21T23:41:26.064Z,83.60
2023-03-21T23:43:55.662Z,83.50
2023-03-21T23:46:24.068Z,83.50
2023-03-21T23:48:51.015Z,83.50
2023-03-21T23:51:18.572Z,83.50
2023-03-21T23:53:46.589Z,83.50
2023-03-21T23:56:16.297Z,83.50
2023-03-21T23:58:43.500Z,83.60
